2026/08/22

Sensor Date Temp./Hum.
h4-hermonville 22-08-2026 - 23:57 18.1°C / 62.5%
h2-hermonville 22-08-2026 - 23:53 16.9°C / 67.5%
h1-hermonville 22-08-2026 - 23:53 15.3°C / 74%
h3-hermonville 22-08-2026 - 23:49 16.9°C / 67.5%
h4-hermonville 22-08-2026 - 23:48 18.2°C / 62.5%
h2-hermonville 22-08-2026 - 23:43 17.2°C / 67%
h1-hermonville 22-08-2026 - 23:43 15.4°C / 73.5%
h3-hermonville 22-08-2026 - 23:39 17°C / 67%
h4-hermonville 22-08-2026 - 23:38 18.3°C / 62.5%
h2-hermonville 22-08-2026 - 23:33 17.5°C / 66.5%
h1-hermonville 22-08-2026 - 23:33 15.6°C / 73%
h3-hermonville 22-08-2026 - 23:29 17.2°C / 67.5%
h4-hermonville 22-08-2026 - 23:27 18.5°C / 62%
h2-hermonville 22-08-2026 - 23:23 17.6°C / 66%
h1-hermonville 22-08-2026 - 23:23 15.7°C / 73%
h3-hermonville 22-08-2026 - 23:19 17.2°C / 67%
h4-hermonville 22-08-2026 - 23:17 18.5°C / 62%
h2-hermonville 22-08-2026 - 23:13 17.9°C / 65%
h1-hermonville 22-08-2026 - 23:13 16°C / 72.5%
h3-hermonville 22-08-2026 - 23:09 17.3°C / 66.5%
h4-hermonville 22-08-2026 - 23:07 18.6°C / 61.5%
h2-hermonville 22-08-2026 - 23:03 18.2°C / 64%
h1-hermonville 22-08-2026 - 23:03 16.1°C / 72%
h3-hermonville 22-08-2026 - 22:59 17.5°C / 66.5%
h2-hermonville 22-08-2026 - 22:53 18.7°C / 62.5%
h1-hermonville 22-08-2026 - 22:53 16.3°C / 71.5%
h3-hermonville 22-08-2026 - 22:49 17.6°C / 66%
h4-hermonville 22-08-2026 - 22:48 18.9°C / 60.5%
h2-hermonville 22-08-2026 - 22:43 18.3°C / 63.5%
h1-hermonville 22-08-2026 - 22:43 16.3°C / 70.5%
h4-hermonville 22-08-2026 - 22:37 18.9°C / 60.5%
h2-hermonville 22-08-2026 - 22:33 18.2°C / 63.5%
h1-hermonville 22-08-2026 - 22:33 16.4°C / 70%
h3-hermonville 22-08-2026 - 22:29 17.8°C / 64.5%
h4-hermonville 22-08-2026 - 22:27 18.9°C / 60%
h2-hermonville 22-08-2026 - 22:23 18.3°C / 63%
h1-hermonville 22-08-2026 - 22:23 16.6°C / 69%
h3-hermonville 22-08-2026 - 22:19 17.9°C / 64%
h4-hermonville 22-08-2026 - 22:17 18.8°C / 60.5%
h2-hermonville 22-08-2026 - 22:13 18.6°C / 62%
h1-hermonville 22-08-2026 - 22:13 16.7°C / 68.5%
h3-hermonville 22-08-2026 - 22:09 18.1°C / 63%
h4-hermonville 22-08-2026 - 22:07 18.9°C / 60.5%
h2-hermonville 22-08-2026 - 22:03 18.7°C / 62.5%
h1-hermonville 22-08-2026 - 22:03 16.8°C / 68%
h3-hermonville 22-08-2026 - 21:59 18.3°C / 63.5%
h2-hermonville 22-08-2026 - 21:53 18.9°C / 62%
h1-hermonville 22-08-2026 - 21:53 17°C / 68%
h3-hermonville 22-08-2026 - 21:49 18.4°C / 63%
h4-hermonville 22-08-2026 - 21:48 19.2°C / 59.5%
h2-hermonville 22-08-2026 - 21:43 19.6°C / 59.5%
h1-hermonville 22-08-2026 - 21:43 17.2°C / 67%
h3-hermonville 22-08-2026 - 21:39 18.5°C / 62%
h4-hermonville 22-08-2026 - 21:37 19.4°C / 59%
h2-hermonville 22-08-2026 - 21:33 19.7°C / 59%
h1-hermonville 22-08-2026 - 21:33 17.3°C / 66.5%
h3-hermonville 22-08-2026 - 21:29 18.7°C / 62%
h4-hermonville 22-08-2026 - 21:27 19.5°C / 59%
h2-hermonville 22-08-2026 - 21:23 19.8°C / 58.5%
h1-hermonville 22-08-2026 - 21:23 17.5°C / 66%
h3-hermonville 22-08-2026 - 21:19 18.8°C / 61.5%
h4-hermonville 22-08-2026 - 21:17 19.6°C / 58.5%
h2-hermonville 22-08-2026 - 21:13 20.1°C / 58.5%
h3-hermonville 22-08-2026 - 21:09 19.1°C / 60.5%
h2-hermonville 22-08-2026 - 21:03 20.1°C / 57.5%
h1-hermonville 22-08-2026 - 21:03 17.9°C / 64.5%
h4-hermonville 22-08-2026 - 20:57 19.7°C / 58%
h2-hermonville 22-08-2026 - 20:53 20.6°C / 56%
h1-hermonville 22-08-2026 - 20:53 18.4°C / 62%
h3-hermonville 22-08-2026 - 20:49 19.5°C / 58.5%
h4-hermonville 22-08-2026 - 20:47 19.7°C / 57%
h2-hermonville 22-08-2026 - 20:43 20.8°C / 54.5%
h1-hermonville 22-08-2026 - 20:43 18.7°C / 61%
h3-hermonville 22-08-2026 - 20:39 19.6°C / 58%
h4-hermonville 22-08-2026 - 20:37 19.8°C / 57%
h2-hermonville 22-08-2026 - 20:33 21.5°C / 52%
h1-hermonville 22-08-2026 - 20:33 18.9°C / 59.5%
h3-hermonville 22-08-2026 - 20:29 19.7°C / 57%
h4-hermonville 22-08-2026 - 20:27 19.8°C / 56.5%
h2-hermonville 22-08-2026 - 20:23 22.1°C / 51.5%
h1-hermonville 22-08-2026 - 20:23 19.1°C / 58.5%
h3-hermonville 22-08-2026 - 20:19 19.8°C / 57%
h4-hermonville 22-08-2026 - 20:17 20°C / 56.5%
h2-hermonville 22-08-2026 - 20:13 22.5°C / 52.5%
h1-hermonville 22-08-2026 - 20:13 19.3°C / 59%
h3-hermonville 22-08-2026 - 20:09 19.8°C / 57%
h4-hermonville 22-08-2026 - 20:07 20°C / 56%
h2-hermonville 22-08-2026 - 20:03 23.1°C / 49.5%
h1-hermonville 22-08-2026 - 20:03 19.4°C / 59.5%
h3-hermonville 22-08-2026 - 19:59 19.8°C / 58%
h2-hermonville 22-08-2026 - 19:53 23.6°C / 50.5%
h1-hermonville 22-08-2026 - 19:53 19.3°C / 59.5%
h3-hermonville 22-08-2026 - 19:49 19.8°C / 58.5%
h4-hermonville 22-08-2026 - 19:47 20.1°C / 57%
h2-hermonville 22-08-2026 - 19:43 22.9°C / 52.5%
h1-hermonville 22-08-2026 - 19:43 19.3°C / 60%
h3-hermonville 22-08-2026 - 19:39 19.7°C / 58.5%
h4-hermonville 22-08-2026 - 19:37 20°C / 57%
h2-hermonville 22-08-2026 - 19:33 23.3°C / 51.5%
h1-hermonville 22-08-2026 - 19:33 19.3°C / 60%
h3-hermonville 22-08-2026 - 19:29 19.7°C / 59%
h4-hermonville 22-08-2026 - 19:27 20°C / 57%
h2-hermonville 22-08-2026 - 19:23 22.7°C / 52.5%
h1-hermonville 22-08-2026 - 19:23 19.3°C / 61%
h3-hermonville 22-08-2026 - 19:19 19.8°C / 59%
h2-hermonville 22-08-2026 - 19:13 23.2°C / 51%
h1-hermonville 22-08-2026 - 19:13 19.3°C / 60.5%
h3-hermonville 22-08-2026 - 19:09 19.9°C / 59.5%
h2-hermonville 22-08-2026 - 19:03 23.6°C / 50.5%
h1-hermonville 22-08-2026 - 19:03 19.3°C / 61%
h3-hermonville 22-08-2026 - 18:59 19.8°C / 60.5%
h2-hermonville 22-08-2026 - 18:53 21.7°C / 54.5%
h1-hermonville 22-08-2026 - 18:53 19.2°C / 62%
h3-hermonville 22-08-2026 - 18:49 19.5°C / 60%
h4-hermonville 22-08-2026 - 18:47 20°C / 57%
h2-hermonville 22-08-2026 - 18:43 21.7°C / 54.5%
h1-hermonville 22-08-2026 - 18:43 19.1°C / 61%
h3-hermonville 22-08-2026 - 18:39 19.4°C / 59.5%
h4-hermonville 22-08-2026 - 18:37 19.9°C / 56.5%
h2-hermonville 22-08-2026 - 18:33 21.6°C / 54%
h1-hermonville 22-08-2026 - 18:33 19.1°C / 60.5%
h4-hermonville 22-08-2026 - 18:27 19.8°C / 57%
h2-hermonville 22-08-2026 - 18:23 21.8°C / 54.5%
h1-hermonville 22-08-2026 - 18:23 18.9°C / 62%
h3-hermonville 22-08-2026 - 18:19 19°C / 61.5%
h4-hermonville 22-08-2026 - 18:17 19.8°C / 57.5%
h2-hermonville 22-08-2026 - 18:13 21.9°C / 54.5%
h1-hermonville 22-08-2026 - 18:13 18.9°C / 63%
h3-hermonville 22-08-2026 - 18:09 19.3°C / 61.5%
h4-hermonville 22-08-2026 - 18:07 20.1°C / 57.5%
h2-hermonville 22-08-2026 - 18:03 22.3°C / 54%
h1-hermonville 22-08-2026 - 18:03 19.1°C / 63%
h3-hermonville 22-08-2026 - 17:59 19.7°C / 60%
h4-hermonville 22-08-2026 - 17:57 20.4°C / 56.5%
h2-hermonville 22-08-2026 - 17:53 22.9°C / 50.5%
h1-hermonville 22-08-2026 - 17:53 19.7°C / 60%
h3-hermonville 22-08-2026 - 17:49 20.2°C / 56.5%
h4-hermonville 22-08-2026 - 17:47 20.7°C / 54%
h2-hermonville 22-08-2026 - 17:43 24.6°C / 45%
h1-hermonville 22-08-2026 - 17:43 20.8°C / 54.5%
h3-hermonville 22-08-2026 - 17:39 21.1°C / 49.5%
h4-hermonville 22-08-2026 - 17:37 21°C / 49%
h2-hermonville 22-08-2026 - 17:33 26.1°C / 40%
h1-hermonville 22-08-2026 - 17:33 20.9°C / 50%
h3-hermonville 22-08-2026 - 17:29 20.9°C / 49%
h4-hermonville 22-08-2026 - 17:27 20.8°C / 50%
h2-hermonville 22-08-2026 - 17:23 25.1°C / 43.5%
h3-hermonville 22-08-2026 - 17:19 20.3°C / 52%
h4-hermonville 22-08-2026 - 17:17 20.3°C / 51%
h2-hermonville 22-08-2026 - 17:13 22.6°C / 50.5%
h1-hermonville 22-08-2026 - 17:13 19.4°C / 56%
h3-hermonville 22-08-2026 - 17:09 19.6°C / 55.5%
h4-hermonville 22-08-2026 - 17:07 20.2°C / 52.5%
h2-hermonville 22-08-2026 - 17:03 21.3°C / 52.5%
h1-hermonville 22-08-2026 - 17:03 19.2°C / 57%
h3-hermonville 22-08-2026 - 16:59 19.5°C / 56%
h4-hermonville 22-08-2026 - 16:57 20.3°C / 52.5%
h2-hermonville 22-08-2026 - 16:53 21.4°C / 52.5%
h1-hermonville 22-08-2026 - 16:53 19.4°C / 57%
h3-hermonville 22-08-2026 - 16:49 19.8°C / 55.5%
h4-hermonville 22-08-2026 - 16:47 20.5°C / 52%
h1-hermonville 22-08-2026 - 16:43 19.5°C / 56.5%
h3-hermonville 22-08-2026 - 16:39 19.7°C / 54.5%
h4-hermonville 22-08-2026 - 16:37 20.7°C / 51.5%
h2-hermonville 22-08-2026 - 16:33 21.5°C / 53.5%
h1-hermonville 22-08-2026 - 16:33 19.8°C / 56%
h3-hermonville 22-08-2026 - 16:29 20.1°C / 55%
h4-hermonville 22-08-2026 - 16:28 20.9°C / 51.5%
h1-hermonville 22-08-2026 - 16:23 20°C / 55%
h3-hermonville 22-08-2026 - 16:19 20.5°C / 53%
h4-hermonville 22-08-2026 - 16:17 21°C / 51%
h2-hermonville 22-08-2026 - 16:13 21.6°C / 52%
h1-hermonville 22-08-2026 - 16:13 20.1°C / 55%
h3-hermonville 22-08-2026 - 16:09 20.6°C / 53%
h4-hermonville 22-08-2026 - 16:07 20.9°C / 51%
h2-hermonville 22-08-2026 - 16:03 21.6°C / 52.5%
h1-hermonville 22-08-2026 - 16:03 20.2°C / 54%
h3-hermonville 22-08-2026 - 15:59 20.7°C / 51.5%
h4-hermonville 22-08-2026 - 15:57 21°C / 49.5%
h2-hermonville 22-08-2026 - 15:53 21.8°C / 54%
h1-hermonville 22-08-2026 - 15:53 20.1°C / 53.5%
h3-hermonville 22-08-2026 - 15:49 20.7°C / 52%
h4-hermonville 22-08-2026 - 15:47 21.1°C / 50.5%
h2-hermonville 22-08-2026 - 15:43 21.6°C / 52.5%
h1-hermonville 22-08-2026 - 15:43 20°C / 54.5%
h3-hermonville 22-08-2026 - 15:39 20.7°C / 52%
h4-hermonville 22-08-2026 - 15:37 21.1°C / 50.5%
h2-hermonville 22-08-2026 - 15:33 21.7°C / 53%
h1-hermonville 22-08-2026 - 15:33 20.1°C / 54.5%
h3-hermonville 22-08-2026 - 15:29 21.1°C / 51%
h4-hermonville 22-08-2026 - 15:27 21.1°C / 50.5%
h2-hermonville 22-08-2026 - 15:23 21.8°C / 50.5%
h1-hermonville 22-08-2026 - 15:23 20°C / 54%
h3-hermonville 22-08-2026 - 15:19 21.2°C / 51.5%
h4-hermonville 22-08-2026 - 15:17 21.2°C / 50%
h2-hermonville 22-08-2026 - 15:13 21.8°C / 51.5%
h1-hermonville 22-08-2026 - 15:13 19.9°C / 55.5%
h3-hermonville 22-08-2026 - 15:09 21.1°C / 51%
h4-hermonville 22-08-2026 - 15:07 21.3°C / 49.5%
h2-hermonville 22-08-2026 - 15:03 21.9°C / 50.5%
h1-hermonville 22-08-2026 - 15:03 20°C / 53.5%
h3-hermonville 22-08-2026 - 14:59 21.1°C / 50%
h2-hermonville 22-08-2026 - 14:53 22°C / 49.5%
h1-hermonville 22-08-2026 - 14:53 20.5°C / 50%
h3-hermonville 22-08-2026 - 14:49 21.5°C / 48%
h4-hermonville 22-08-2026 - 14:47 22°C / 45.5%
h2-hermonville 22-08-2026 - 14:43 22.5°C / 48.5%
h1-hermonville 22-08-2026 - 14:43 20.8°C / 48.5%
h3-hermonville 22-08-2026 - 14:39 21.1°C / 48.5%
h4-hermonville 22-08-2026 - 14:37 21.4°C / 46.5%
h2-hermonville 22-08-2026 - 14:33 22.2°C / 49.5%
h1-hermonville 22-08-2026 - 14:33 20.3°C / 50%
h3-hermonville 22-08-2026 - 14:29 20.5°C / 50%
h2-hermonville 22-08-2026 - 14:23 22°C / 50%
h1-hermonville 22-08-2026 - 14:23 20°C / 50%
h3-hermonville 22-08-2026 - 14:19 20.6°C / 49.5%
h4-hermonville 22-08-2026 - 14:17 21°C / 46.5%
h2-hermonville 22-08-2026 - 14:13 21.5°C / 48%
h1-hermonville 22-08-2026 - 14:13 19.8°C / 52%
h3-hermonville 22-08-2026 - 14:09 20.2°C / 50.5%
h4-hermonville 22-08-2026 - 14:07 21.1°C / 47%
h2-hermonville 22-08-2026 - 14:03 21.4°C / 50%
h1-hermonville 22-08-2026 - 14:03 19.7°C / 53%
h3-hermonville 22-08-2026 - 13:59 20.3°C / 51.5%
h4-hermonville 22-08-2026 - 13:57 21.1°C / 48%
h2-hermonville 22-08-2026 - 13:53 21.4°C / 52%
h1-hermonville 22-08-2026 - 13:53 19.7°C / 52%
h3-hermonville 22-08-2026 - 13:49 20.1°C / 51%
h4-hermonville 22-08-2026 - 13:47 21°C / 47%
h2-hermonville 22-08-2026 - 13:43 20.9°C / 52.5%
h1-hermonville 22-08-2026 - 13:43 19.5°C / 52.5%
h3-hermonville 22-08-2026 - 13:39 19.8°C / 52%
h4-hermonville 22-08-2026 - 13:37 21.2°C / 47.5%
h2-hermonville 22-08-2026 - 13:33 20.9°C / 53.5%
h1-hermonville 22-08-2026 - 13:33 19.3°C / 54.5%
h3-hermonville 22-08-2026 - 13:29 19.8°C / 53%
h4-hermonville 22-08-2026 - 13:27 21.5°C / 47%
h2-hermonville 22-08-2026 - 13:23 20.8°C / 53%
h1-hermonville 22-08-2026 - 13:23 20.1°C / 52.5%
h3-hermonville 22-08-2026 - 13:19 20.3°C / 50%
h4-hermonville 22-08-2026 - 13:17 21.5°C / 45.5%
h2-hermonville 22-08-2026 - 13:13 20.9°C / 50.5%
h1-hermonville 22-08-2026 - 13:13 19.5°C / 52.5%
h3-hermonville 22-08-2026 - 13:09 19.9°C / 51.5%
h4-hermonville 22-08-2026 - 13:07 21.6°C / 46%
h2-hermonville 22-08-2026 - 13:03 20.6°C / 51.5%
h1-hermonville 22-08-2026 - 13:03 19.2°C / 53.5%
h3-hermonville 22-08-2026 - 12:59 20°C / 52%
h4-hermonville 22-08-2026 - 12:57 22°C / 47%
h2-hermonville 22-08-2026 - 12:53 20.4°C / 55.5%
h1-hermonville 22-08-2026 - 12:53 19.4°C / 55.5%
h3-hermonville 22-08-2026 - 12:49 19.9°C / 53.5%
h4-hermonville 22-08-2026 - 12:47 22.1°C / 45.5%
h2-hermonville 22-08-2026 - 12:43 20.2°C / 54.5%
h1-hermonville 22-08-2026 - 12:43 19.5°C / 52%
h3-hermonville 22-08-2026 - 12:39 19.7°C / 55.5%
h4-hermonville 22-08-2026 - 12:37 21.9°C / 48%
h2-hermonville 22-08-2026 - 12:33 19.8°C / 55.5%
h1-hermonville 22-08-2026 - 12:33 18.8°C / 58%
h3-hermonville 22-08-2026 - 12:29 19.6°C / 56%
h4-hermonville 22-08-2026 - 12:28 22.3°C / 46.5%
h2-hermonville 22-08-2026 - 12:23 19.4°C / 57%
h1-hermonville 22-08-2026 - 12:23 19.1°C / 57.5%
h3-hermonville 22-08-2026 - 12:19 19.6°C / 55%
h4-hermonville 22-08-2026 - 12:17 22.6°C / 45.5%
h2-hermonville 22-08-2026 - 12:13 19.3°C / 57%
h1-hermonville 22-08-2026 - 12:13 18.7°C / 59.5%
h3-hermonville 22-08-2026 - 12:09 18.8°C / 58%
h4-hermonville 22-08-2026 - 12:07 22.8°C / 45.5%
h2-hermonville 22-08-2026 - 12:03 19°C / 60.5%
h1-hermonville 22-08-2026 - 12:03 18.8°C / 59%
h3-hermonville 22-08-2026 - 11:59 19°C / 57%
h4-hermonville 22-08-2026 - 11:57 24.4°C / 41.5%
h2-hermonville 22-08-2026 - 11:53 18.9°C / 61%
h1-hermonville 22-08-2026 - 11:53 18.7°C / 59.5%
h3-hermonville 22-08-2026 - 11:49 19.2°C / 56.5%
h4-hermonville 22-08-2026 - 11:47 25.4°C / 41%
h2-hermonville 22-08-2026 - 11:43 18.5°C / 60%
h1-hermonville 22-08-2026 - 11:43 18.6°C / 61%
h3-hermonville 22-08-2026 - 11:39 18.6°C / 60.5%
h4-hermonville 22-08-2026 - 11:37 26.1°C / 39.5%
h2-hermonville 22-08-2026 - 11:33 18.5°C / 64.5%
h1-hermonville 22-08-2026 - 11:33 18°C / 61%
h3-hermonville 22-08-2026 - 11:29 18.3°C / 61.5%
h4-hermonville 22-08-2026 - 11:27 27.6°C / 37%
h2-hermonville 22-08-2026 - 11:23 18.2°C / 63%
h1-hermonville 22-08-2026 - 11:23 17.8°C / 63.5%
h3-hermonville 22-08-2026 - 11:19 18.5°C / 61.5%
h4-hermonville 22-08-2026 - 11:17 28.7°C / 36.5%
h2-hermonville 22-08-2026 - 11:13 17.9°C / 65%
h1-hermonville 22-08-2026 - 11:13 17.8°C / 65.5%
h3-hermonville 22-08-2026 - 11:09 17.7°C / 64.5%
h4-hermonville 22-08-2026 - 11:08 27.4°C / 37.5%
h2-hermonville 22-08-2026 - 11:03 17.6°C / 67.5%
h1-hermonville 22-08-2026 - 11:03 17.4°C / 67%
h3-hermonville 22-08-2026 - 10:59 17.5°C / 66%
h4-hermonville 22-08-2026 - 10:57 29.7°C / 35%
h2-hermonville 22-08-2026 - 10:53 17.6°C / 67.5%
h1-hermonville 22-08-2026 - 10:53 17.3°C / 67.5%
h3-hermonville 22-08-2026 - 10:49 17.3°C / 67.5%
h4-hermonville 22-08-2026 - 10:47 29.4°C / 35.5%
h2-hermonville 22-08-2026 - 10:43 17°C / 70.5%
h1-hermonville 22-08-2026 - 10:43 17.3°C / 68.5%
h3-hermonville 22-08-2026 - 10:39 17.2°C / 69%
h4-hermonville 22-08-2026 - 10:37 29.6°C / 36%
h1-hermonville 22-08-2026 - 10:33 16.8°C / 70.5%
h3-hermonville 22-08-2026 - 10:29 17.1°C / 68%
h4-hermonville 22-08-2026 - 10:27 28.6°C / 37%
h2-hermonville 22-08-2026 - 10:23 17.3°C / 69%
h1-hermonville 22-08-2026 - 10:23 16.8°C / 69.5%
h3-hermonville 22-08-2026 - 10:19 17.2°C / 67.5%
h4-hermonville 22-08-2026 - 10:17 29.3°C / 36%
h2-hermonville 22-08-2026 - 10:13 16.9°C / 69%
h1-hermonville 22-08-2026 - 10:13 16.6°C / 69%
h3-hermonville 22-08-2026 - 10:09 16.7°C / 68%
h4-hermonville 22-08-2026 - 10:07 28.4°C / 37%
h2-hermonville 22-08-2026 - 10:03 17.2°C / 68.5%
h1-hermonville 22-08-2026 - 10:03 16.2°C / 69%
h3-hermonville 22-08-2026 - 09:59 16.6°C / 67.5%
h4-hermonville 22-08-2026 - 09:57 27.8°C / 37.5%
h2-hermonville 22-08-2026 - 09:53 16.8°C / 69.5%
h1-hermonville 22-08-2026 - 09:53 16.4°C / 69.5%
h3-hermonville 22-08-2026 - 09:49 16.3°C / 67.5%
h4-hermonville 22-08-2026 - 09:47 28.1°C / 37.5%
h2-hermonville 22-08-2026 - 09:43 16.3°C / 71.5%
h1-hermonville 22-08-2026 - 09:43 16.2°C / 70.5%
h3-hermonville 22-08-2026 - 09:39 16.8°C / 68.5%
h2-hermonville 22-08-2026 - 09:33 15.9°C / 71.5%
h1-hermonville 22-08-2026 - 09:33 16.1°C / 69%
h3-hermonville 22-08-2026 - 09:29 16.3°C / 71%
h2-hermonville 22-08-2026 - 09:23 15.4°C / 75.5%
h1-hermonville 22-08-2026 - 09:23 16°C / 74%
h3-hermonville 22-08-2026 - 09:19 15.6°C / 73.5%
h4-hermonville 22-08-2026 - 09:17 27.2°C / 42%
h2-hermonville 22-08-2026 - 09:13 15°C / 78%
h1-hermonville 22-08-2026 - 09:13 15.9°C / 76%
h3-hermonville 22-08-2026 - 09:09 15.6°C / 75%
h2-hermonville 22-08-2026 - 09:03 14.9°C / 80%
h1-hermonville 22-08-2026 - 09:03 15.4°C / 78.5%
h3-hermonville 22-08-2026 - 08:59 15.9°C / 76%
h4-hermonville 22-08-2026 - 08:57 25.8°C / 46.5%
h2-hermonville 22-08-2026 - 08:53 14.7°C / 81.5%
h1-hermonville 22-08-2026 - 08:53 14.7°C / 82%
h3-hermonville 22-08-2026 - 08:49 15.8°C / 76.5%
h4-hermonville 22-08-2026 - 08:47 24.6°C / 49.5%
h2-hermonville 22-08-2026 - 08:43 14.4°C / 83%
h1-hermonville 22-08-2026 - 08:43 15.2°C / 80.5%
h3-hermonville 22-08-2026 - 08:39 15.6°C / 77.5%
h4-hermonville 22-08-2026 - 08:37 23.8°C / 51%
h2-hermonville 22-08-2026 - 08:33 14.1°C / 85%
h1-hermonville 22-08-2026 - 08:33 14.7°C / 82.5%
h3-hermonville 22-08-2026 - 08:29 15.4°C / 78%
h2-hermonville 22-08-2026 - 08:23 13.8°C / 85%
h1-hermonville 22-08-2026 - 08:23 14.6°C / 82.5%
h3-hermonville 22-08-2026 - 08:19 15.6°C / 78%
h4-hermonville 22-08-2026 - 08:17 20.2°C / 61.5%
h2-hermonville 22-08-2026 - 08:13 13.9°C / 85%
h1-hermonville 22-08-2026 - 08:13 14.5°C / 82.5%
h3-hermonville 22-08-2026 - 08:09 15.1°C / 79%
h4-hermonville 22-08-2026 - 08:07 17.8°C / 69%
h2-hermonville 22-08-2026 - 08:03 13.7°C / 84.5%
h1-hermonville 22-08-2026 - 08:03 14.2°C / 82.5%
h3-hermonville 22-08-2026 - 07:59 15.2°C / 78.5%
h4-hermonville 22-08-2026 - 07:57 16.4°C / 72.5%
h2-hermonville 22-08-2026 - 07:53 13.9°C / 85%
h1-hermonville 22-08-2026 - 07:53 14.7°C / 81%
h3-hermonville 22-08-2026 - 07:49 15.1°C / 78.5%
h4-hermonville 22-08-2026 - 07:47 16.3°C / 72.5%
h1-hermonville 22-08-2026 - 07:43 14.5°C / 81.5%
h3-hermonville 22-08-2026 - 07:39 14.5°C / 80.5%
h4-hermonville 22-08-2026 - 07:37 16°C / 73%
h2-hermonville 22-08-2026 - 07:33 13.4°C / 84.5%
h1-hermonville 22-08-2026 - 07:33 13.9°C / 83.5%
h3-hermonville 22-08-2026 - 07:29 14.4°C / 81%
h2-hermonville 22-08-2026 - 07:23 13.7°C / 83.5%
h1-hermonville 22-08-2026 - 07:23 14.3°C / 81%
h3-hermonville 22-08-2026 - 07:19 13.4°C / 85%
h2-hermonville 22-08-2026 - 07:13 13.2°C / 84%
h1-hermonville 22-08-2026 - 07:13 14.5°C / 80%
h4-hermonville 22-08-2026 - 07:07 15.7°C / 72.5%
h2-hermonville 22-08-2026 - 07:03 13.5°C / 82.5%
h1-hermonville 22-08-2026 - 07:03 14.6°C / 79.5%
h3-hermonville 22-08-2026 - 06:59 13.2°C / 83%
h2-hermonville 22-08-2026 - 06:53 13.5°C / 82%
h3-hermonville 22-08-2026 - 06:49 13.7°C / 81%
h4-hermonville 22-08-2026 - 06:47 15.7°C / 72.5%
h2-hermonville 22-08-2026 - 06:43 13.8°C / 82%
h1-hermonville 22-08-2026 - 06:43 14.6°C / 80%
h3-hermonville 22-08-2026 - 06:39 14.9°C / 77.5%
h4-hermonville 22-08-2026 - 06:37 15.8°C / 73%
h2-hermonville 22-08-2026 - 06:33 14.2°C / 81%
h1-hermonville 22-08-2026 - 06:33 14.5°C / 81.5%
h3-hermonville 22-08-2026 - 06:29 15.1°C / 76.5%
h4-hermonville 22-08-2026 - 06:27 15.8°C / 73%
h2-hermonville 22-08-2026 - 06:23 14.6°C / 79%
h1-hermonville 22-08-2026 - 06:23 14.2°C / 81.5%
h3-hermonville 22-08-2026 - 06:19 15.4°C / 76%
h2-hermonville 22-08-2026 - 06:13 14.6°C / 79%
h3-hermonville 22-08-2026 - 06:09 15.7°C / 76%
h2-hermonville 22-08-2026 - 06:03 15°C / 79%
h1-hermonville 22-08-2026 - 06:03 13.8°C / 85%
h3-hermonville 22-08-2026 - 05:59 15.4°C / 77.5%
h2-hermonville 22-08-2026 - 05:53 15.3°C / 77.5%
h1-hermonville 22-08-2026 - 05:53 13.8°C / 85.5%
h3-hermonville 22-08-2026 - 05:49 15.5°C / 77.5%
h4-hermonville 22-08-2026 - 05:47 16.3°C / 73.5%
h2-hermonville 22-08-2026 - 05:43 15.5°C / 77.5%
h1-hermonville 22-08-2026 - 05:43 13.9°C / 86.5%
h3-hermonville 22-08-2026 - 05:39 15.1°C / 79.5%
h4-hermonville 22-08-2026 - 05:37 16.3°C / 73.5%
h2-hermonville 22-08-2026 - 05:33 15.8°C / 77%
h1-hermonville 22-08-2026 - 05:33 14°C / 85.5%
h4-hermonville 22-08-2026 - 05:27 16.4°C / 73.5%
h2-hermonville 22-08-2026 - 05:23 16.1°C / 76.5%
h1-hermonville 22-08-2026 - 05:23 14.1°C / 85.5%
h3-hermonville 22-08-2026 - 05:19 15.4°C / 79.5%
h2-hermonville 22-08-2026 - 05:13 16.4°C / 75.5%
h1-hermonville 22-08-2026 - 05:13 14.2°C / 85.5%
h3-hermonville 22-08-2026 - 05:09 15.4°C / 78.5%
h4-hermonville 22-08-2026 - 05:07 16.4°C / 73.5%
h2-hermonville 22-08-2026 - 05:03 16.3°C / 75%
h1-hermonville 22-08-2026 - 05:03 14.4°C / 84.5%
h3-hermonville 22-08-2026 - 04:59 15.4°C / 79%
h4-hermonville 22-08-2026 - 04:57 16.5°C / 73.5%
h2-hermonville 22-08-2026 - 04:53 16.2°C / 76.5%
h1-hermonville 22-08-2026 - 04:53 14.4°C / 84%
h3-hermonville 22-08-2026 - 04:49 15.6°C / 78.5%
h4-hermonville 22-08-2026 - 04:47 16.4°C / 74%
h2-hermonville 22-08-2026 - 04:43 15.7°C / 78.5%
h1-hermonville 22-08-2026 - 04:43 14.4°C / 84.5%
h3-hermonville 22-08-2026 - 04:39 15.7°C / 78%
h4-hermonville 22-08-2026 - 04:38 16.5°C / 74%
h2-hermonville 22-08-2026 - 04:33 15.7°C / 79%
h1-hermonville 22-08-2026 - 04:33 14.6°C / 84.5%
h3-hermonville 22-08-2026 - 04:29 15.8°C / 78%
h4-hermonville 22-08-2026 - 04:28 16.5°C / 74%
h2-hermonville 22-08-2026 - 04:23 15.7°C / 78.5%
h1-hermonville 22-08-2026 - 04:23 14.6°C / 84%
h3-hermonville 22-08-2026 - 04:19 16.1°C / 77%
h4-hermonville 22-08-2026 - 04:17 16.6°C / 73.5%
h2-hermonville 22-08-2026 - 04:13 15.7°C / 78%
h1-hermonville 22-08-2026 - 04:13 14.7°C / 84.5%
h3-hermonville 22-08-2026 - 04:09 15.7°C / 79%
h4-hermonville 22-08-2026 - 04:07 16.9°C / 73%
h2-hermonville 22-08-2026 - 04:03 16.2°C / 76%
h1-hermonville 22-08-2026 - 04:03 14.5°C / 85%
h3-hermonville 22-08-2026 - 03:59 15.7°C / 79%
h4-hermonville 22-08-2026 - 03:57 16.7°C / 73%
h2-hermonville 22-08-2026 - 03:53 16.1°C / 77%
h1-hermonville 22-08-2026 - 03:53 14.6°C / 85%
h3-hermonville 22-08-2026 - 03:49 15.6°C / 79%
h4-hermonville 22-08-2026 - 03:47 16.9°C / 73%
h2-hermonville 22-08-2026 - 03:43 16.3°C / 77%
h1-hermonville 22-08-2026 - 03:43 14.5°C / 85%
h3-hermonville 22-08-2026 - 03:39 15.7°C / 79%
h4-hermonville 22-08-2026 - 03:37 16.8°C / 73.5%
h2-hermonville 22-08-2026 - 03:33 16.6°C / 75.5%
h1-hermonville 22-08-2026 - 03:33 14.5°C / 85.5%
h3-hermonville 22-08-2026 - 03:29 15.6°C / 79.5%
h4-hermonville 22-08-2026 - 03:27 16.8°C / 74%
h2-hermonville 22-08-2026 - 03:23 16.9°C / 75%
h1-hermonville 22-08-2026 - 03:23 14.6°C / 85.5%
h3-hermonville 22-08-2026 - 03:19 15.6°C / 80%
h4-hermonville 22-08-2026 - 03:17 16.8°C / 73.5%
h2-hermonville 22-08-2026 - 03:13 17.1°C / 74%
h1-hermonville 22-08-2026 - 03:13 14.8°C / 85%
h3-hermonville 22-08-2026 - 03:09 15.7°C / 80%
h4-hermonville 22-08-2026 - 03:07 16.7°C / 74%
h2-hermonville 22-08-2026 - 03:03 17.2°C / 74%
h1-hermonville 22-08-2026 - 03:03 14.8°C / 84.5%
h3-hermonville 22-08-2026 - 02:59 15.8°C / 79.5%
h4-hermonville 22-08-2026 - 02:57 16.6°C / 74.5%
h2-hermonville 22-08-2026 - 02:53 16.7°C / 76.5%
h1-hermonville 22-08-2026 - 02:53 14.9°C / 84%
h3-hermonville 22-08-2026 - 02:49 16.1°C / 78%
h4-hermonville 22-08-2026 - 02:47 16.8°C / 74%
h2-hermonville 22-08-2026 - 02:43 16.7°C / 75%
h1-hermonville 22-08-2026 - 02:43 15°C / 84%
h3-hermonville 22-08-2026 - 02:39 16°C / 79%
h4-hermonville 22-08-2026 - 02:37 17°C / 73.5%
h1-hermonville 22-08-2026 - 02:33 15°C / 84.5%
h3-hermonville 22-08-2026 - 02:29 16°C / 79%
h4-hermonville 22-08-2026 - 02:27 16.9°C / 73.5%
h2-hermonville 22-08-2026 - 02:23 17.2°C / 74.5%
h1-hermonville 22-08-2026 - 02:23 15°C / 84%
h3-hermonville 22-08-2026 - 02:19 16.2°C / 78%
h1-hermonville 22-08-2026 - 02:13 15°C / 84%
h3-hermonville 22-08-2026 - 02:09 16.5°C / 77%
h2-hermonville 22-08-2026 - 02:03 17°C / 75.5%
h1-hermonville 22-08-2026 - 02:03 15.1°C / 83.5%
h3-hermonville 22-08-2026 - 01:59 16.5°C / 78%
h1-hermonville 22-08-2026 - 01:53 15.3°C / 84%
h3-hermonville 22-08-2026 - 01:49 16.2°C / 78%
h4-hermonville 22-08-2026 - 01:47 17.5°C / 72%
h2-hermonville 22-08-2026 - 01:43 17.5°C / 74%
h1-hermonville 22-08-2026 - 01:43 15.1°C / 84.5%
h3-hermonville 22-08-2026 - 01:39 16.4°C / 77.5%
h4-hermonville 22-08-2026 - 01:37 17.3°C / 72.5%
h2-hermonville 22-08-2026 - 01:33 17.4°C / 73.5%
h1-hermonville 22-08-2026 - 01:33 15.1°C / 84%
h3-hermonville 22-08-2026 - 01:29 16.3°C / 78%
h4-hermonville 22-08-2026 - 01:27 17.5°C / 72%
h2-hermonville 22-08-2026 - 01:23 17.5°C / 74%
h1-hermonville 22-08-2026 - 01:23 15.3°C / 84%
h3-hermonville 22-08-2026 - 01:19 16.6°C / 77.5%
h4-hermonville 22-08-2026 - 01:17 17.5°C / 72%
h2-hermonville 22-08-2026 - 01:13 17.3°C / 75%
h1-hermonville 22-08-2026 - 01:13 15.4°C / 83.5%
h3-hermonville 22-08-2026 - 01:09 16.9°C / 76.5%
h4-hermonville 22-08-2026 - 01:07 17.5°C / 72.5%
h2-hermonville 22-08-2026 - 01:03 17.1°C / 75%
h1-hermonville 22-08-2026 - 01:03 15.8°C / 81.5%
h3-hermonville 22-08-2026 - 00:59 16.8°C / 76.5%
h4-hermonville 22-08-2026 - 00:57 17.5°C / 72%
h2-hermonville 22-08-2026 - 00:53 18°C / 71.5%
h1-hermonville 22-08-2026 - 00:53 15.5°C / 83.5%
h3-hermonville 22-08-2026 - 00:49 16.5°C / 78.5%
h4-hermonville 22-08-2026 - 00:47 17.7°C / 71.5%
h2-hermonville 22-08-2026 - 00:43 18.2°C / 71%
h1-hermonville 22-08-2026 - 00:43 15.3°C / 84%
h3-hermonville 22-08-2026 - 00:39 16.4°C / 77.5%
h4-hermonville 22-08-2026 - 00:37 17.7°C / 71%
h2-hermonville 22-08-2026 - 00:33 17.8°C / 72.5%
h1-hermonville 22-08-2026 - 00:33 15.5°C / 82.5%
h3-hermonville 22-08-2026 - 00:29 16.8°C / 76.5%
h2-hermonville 22-08-2026 - 00:23 18.1°C / 70.5%
h1-hermonville 22-08-2026 - 00:23 15.5°C / 83%
h3-hermonville 22-08-2026 - 00:19 16.1°C / 79%
h4-hermonville 22-08-2026 - 00:17 17.9°C / 71%
h2-hermonville 22-08-2026 - 00:13 18.3°C / 70.5%
h1-hermonville 22-08-2026 - 00:13 15.2°C / 84%
h3-hermonville 22-08-2026 - 00:09 16.2°C / 78%
h4-hermonville 22-08-2026 - 00:07 17.8°C / 70.5%
h2-hermonville 22-08-2026 - 00:03 18.7°C / 68.5%
h1-hermonville 22-08-2026 - 00:03 15.3°C / 83.5%